Time;durP1;ratioP1;P1;durP2;ratioP2;P2;SDS_P1;SDS_P2;PMS_P1;PMS_P2;Temp;Humidity;BMP_temperature;BMP_pressure;BME280_temperature;BME280_humidity;BME280_pressure;Samples;Min_cycle;Max_cycle;Signal;HPM_P1;HPM_P2
2023/07/14 00:01:10;;;;;;;10.20;6.07;;;23.00;71.60;;;;;;7409220;19;20013;-76
2023/07/14 00:03:43;;;;;;;16.17;6.57;;;23.00;71.70;;;;;;7384748;19;19998;-77
2023/07/14 00:06:20;;;;;;;11.25;6.60;;;22.90;72.00;;;;;;7383990;19;19999;-78
2023/07/14 00:11:47;;;;;;;14.57;6.63;;;22.90;72.10;;;;;;7385873;19;20046;-77
2023/07/14 00:14:58;;;;;;;;;;;;;;;;;;;;;
2023/07/14 00:17:46;;;;;;;16.67;6.53;;;22.90;72.30;;;;;;7384941;19;20037;-78
2023/07/14 00:20:36;;;;;;;15.05;6.80;;;22.90;72.30;;;;;;7379337;19;20251;-77
2023/07/14 00:23:32;;;;;;;10.30;6.57;;;22.90;72.30;;;;;;7381346;19;20006;-78
2023/07/14 00:26:16;;;;;;;16.83;7.68;;;22.80;72.30;;;;;;7384074;19;20082;-78
2023/07/14 00:28:57;;;;;;;13.82;7.15;;;22.80;72.30;;;;;;7388418;19;20070;-78
2023/07/14 00:31:28;;;;;;;17.02;7.10;;;22.80;72.30;;;;;;7385628;19;20484;-77
2023/07/14 00:34:05;;;;;;;12.70;7.55;;;22.80;72.50;;;;;;7382391;19;20017;-77
2023/07/14 00:37:08;;;;;;;;;;;;;;;;;;;;;
2023/07/14 00:40:10;;;;;;;15.88;8.05;;;22.70;72.70;;;;;;7378991;19;20961;-77
2023/07/14 00:42:46;;;;;;;12.63;7.68;;;22.70;72.90;;;;;;7379074;19;20310;-77
2023/07/14 00:45:21;;;;;;;15.57;7.70;;;22.60;73.10;;;;;;7403193;19;20035;-77
2023/07/14 00:47:57;;;;;;;18.80;7.75;;;22.60;73.40;;;;;;7380684;19;20011;-78
2023/07/14 00:50:47;;;;;;;;;;;;;;;;;;;;;
2023/07/14 00:53:37;;;;;;;13.35;7.78;;;22.60;73.70;;;;;;7382630;19;20007;-77
2023/07/14 00:56:57;;;;;;;;;;;;;;;;;;;;;
2023/07/14 00:59:43;;;;;;;11.23;6.53;;;22.50;73.90;;;;;;7389450;19;20007;-78
2023/07/14 01:02:25;;;;;;;10.95;5.97;;;22.50;74.00;;;;;;7388507;19;20047;-77
2023/07/14 01:05:21;;;;;;;10.45;6.30;;;22.50;74.30;;;;;;7381000;19;20019;-77
2023/07/14 01:07:57;;;;;;;16.58;7.10;;;22.50;74.30;;;;;;7383503;19;20220;-78
2023/07/14 01:10:35;;;;;;;13.95;6.90;;;22.50;74.30;;;;;;7387479;19;20018;-77
2023/07/14 01:13:07;;;;;;;19.70;7.53;;;22.50;74.30;;;;;;7391117;19;20476;-73
2023/07/14 01:15:42;;;;;;;13.38;7.93;;;22.40;74.40;;;;;;7400985;19;20032;-73
2023/07/14 01:18:13;;;;;;;14.40;7.00;;;22.40;74.30;;;;;;7378954;19;20002;-73
2023/07/14 01:20:42;;;;;;;13.07;7.33;;;22.40;75.20;;;;;;7376653;19;20013;-73
2023/07/14 01:23:29;;;;;;;12.75;6.35;;;22.40;74.40;;;;;;7377152;19;20388;-73
2023/07/14 01:26:10;;;;;;;11.57;6.80;;;22.30;74.70;;;;;;7378191;19;20007;-73
2023/07/14 01:28:41;;;;;;;9.50;5.97;;;22.40;74.80;;;;;;7385532;19;20053;-73
2023/07/14 01:31:14;;;;;;;15.02;6.70;;;22.40;75.00;;;;;;7389711;19;20358;-73
2023/07/14 01:33:42;;;;;;;10.60;6.55;;;22.40;74.60;;;;;;7411253;19;20015;-73
2023/07/14 01:36:11;;;;;;;14.55;6.95;;;22.40;74.50;;;;;;7404672;19;20010;-72
2023/07/14 01:38:41;;;;;;;15.45;6.93;;;22.30;74.50;;;;;;7403609;19;19999;-73
2023/07/14 01:41:10;;;;;;;14.73;6.32;;;22.30;75.20;;;;;;7397189;19;20006;-72
2023/07/14 01:43:42;;;;;;;13.68;6.63;;;22.30;74.70;;;;;;7393183;19;20010;-73
2023/07/14 01:46:17;;;;;;;14.77;6.80;;;22.20;74.60;;;;;;7404669;19;20011;-72
2023/07/14 01:49:03;;;;;;;10.25;6.70;;;22.20;74.90;;;;;;7416527;19;20007;-72
2023/07/14 01:51:35;;;;;;;14.38;7.10;;;22.20;75.00;;;;;;7384930;19;20010;-72
2023/07/14 01:54:08;;;;;;;16.48;7.07;;;22.20;74.90;;;;;;7388731;19;20002;-72
2023/07/14 01:56:38;;;;;;;13.70;6.88;;;22.20;74.80;;;;;;7388433;19;20010;-72
2023/07/14 01:59:18;;;;;;;10.82;6.43;;;22.20;75.00;;;;;;7391616;19;20056;-72
2023/07/14 02:01:48;;;;;;;11.45;7.10;;;22.10;75.00;;;;;;7387902;19;20048;-72
2023/07/14 02:04:22;;;;;;;11.68;6.80;;;22.10;75.20;;;;;;7391161;19;20023;-72
2023/07/14 02:06:51;;;;;;;15.32;7.05;;;22.00;75.60;;;;;;7411827;19;20028;-72
2023/07/14 02:09:23;;;;;;;14.07;6.80;;;22.00;75.60;;;;;;7386616;19;20002;-72
2023/07/14 02:11:55;;;;;;;10.45;6.63;;;22.00;75.80;;;;;;7386360;19;20013;-72
2023/07/14 02:14:28;;;;;;;12.48;6.65;;;21.90;75.70;;;;;;7386015;19;20064;-72
2023/07/14 02:17:02;;;;;;;14.50;6.35;;;21.90;75.70;;;;;;7387292;19;20019;-72
2023/07/14 02:19:31;;;;;;;8.95;6.53;;;22.00;75.80;;;;;;7391090;19;20114;-73
2023/07/14 02:22:02;;;;;;;13.55;6.72;;;22.00;75.60;;;;;;7386757;19;20006;-72
2023/07/14 02:24:32;;;;;;;10.73;7.23;;;21.90;75.70;;;;;;7406436;19;19999;-73
2023/07/14 02:27:03;;;;;;;13.98;7.15;;;22.00;75.90;;;;;;7385355;19;20240;-72
2023/07/14 02:29:35;;;;;;;12.50;7.00;;;21.90;75.90;;;;;;7384266;19;20015;-72
2023/07/14 02:32:06;;;;;;;;;;;21.90;76.90;;;;;;7384511;19;20089;-72
2023/07/14 02:34:42;;;;;;;13.98;6.65;;;21.90;76.30;;;;;;7385294;19;19911;-72
2023/07/14 02:40:39;;;;;;;12.75;6.82;;;21.70;76.50;;;;;;7382839;19;20007;-72
2023/07/14 02:43:10;;;;;;;14.45;7.15;;;21.70;76.50;;;;;;7382826;19;20007;-72
2023/07/14 02:45:46;;;;;;;11.00;7.03;;;21.70;76.40;;;;;;7406476;19;20024;-73
2023/07/14 02:48:18;;;;;;;19.27;7.55;;;21.60;76.50;;;;;;7383942;19;20299;-73
2023/07/14 02:50:47;;;;;;;12.32;6.82;;;21.60;76.70;;;;;;7383618;19;20011;-72
2023/07/14 02:53:17;;;;;;;14.27;7.38;;;21.60;76.90;;;;;;7385770;19;20416;-73
2023/07/14 02:55:46;;;;;;;11.55;7.50;;;21.60;76.80;;;;;;7385723;19;20054;-73
2023/07/14 02:58:15;;;;;;;11.77;7.22;;;21.60;76.80;;;;;;7384648;19;20017;-73
2023/07/14 03:00:46;;;;;;;12.02;7.20;;;21.60;76.80;;;;;;7405339;19;20260;-73
2023/07/14 03:03:15;;;;;;;;;;;21.50;76.80;;;;;;7382601;19;20003;-73
2023/07/14 03:05:43;;;;;;;13.55;6.90;;;21.60;76.90;;;;;;7384407;19;19907;-73
2023/07/14 03:08:18;;;;;;;17.23;7.70;;;21.50;76.40;;;;;;7385344;19;19998;-72
2023/07/14 03:10:49;;;;;;;12.95;6.50;;;21.50;76.60;;;;;;7387657;19;20028;-72
2023/07/14 03:13:19;;;;;;;15.13;7.77;;;21.50;76.70;;;;;;7387643;19;20006;-72
2023/07/14 03:15:52;;;;;;;14.65;8.30;;;21.40;77.00;;;;;;7408425;19;20255;-72
2023/07/14 03:18:21;;;;;;;16.25;8.80;;;21.40;77.10;;;;;;7383453;19;20003;-72
2023/07/14 03:20:49;;;;;;;19.13;8.90;;;21.40;77.20;;;;;;7384579;19;20020;-73
2023/07/14 03:23:18;;;;;;;13.93;8.18;;;21.40;77.30;;;;;;7392685;19;20002;-73
2023/07/14 03:25:47;;;;;;;15.13;8.43;;;21.40;77.30;;;;;;7397446;19;20003;-71
2023/07/14 03:28:16;;;;;;;18.08;8.48;;;21.40;77.30;;;;;;7396151;19;20015;-73
2023/07/14 03:30:45;;;;;;;13.90;8.35;;;21.40;77.30;;;;;;7407471;19;20272;-72
2023/07/14 03:33:17;;;;;;;14.00;7.75;;;21.40;77.10;;;;;;7386855;19;20020;-72
2023/07/14 03:35:45;;;;;;;;;;;21.50;77.10;;;;;;7384185;19;20035;-72
2023/07/14 03:38:14;;;;;;;12.43;7.28;;;21.50;77.00;;;;;;7382854;19;19924;-72
2023/07/14 03:40:44;;;;;;;14.25;7.85;;;21.50;77.20;;;;;;7382771;19;20426;-73
2023/07/14 03:43:13;;;;;;;16.63;8.65;;;21.50;77.30;;;;;;7383128;19;20015;-72
2023/07/14 03:45:41;;;;;;;14.52;7.97;;;21.50;77.40;;;;;;7405132;19;20011;-74
2023/07/14 03:48:10;;;;;;;18.23;8.15;;;21.50;77.30;;;;;;7382160;19;20006;-72
2023/07/14 03:50:42;;;;;;;17.67;8.35;;;21.60;77.30;;;;;;7380706;19;20007;-73
2023/07/14 03:53:11;;;;;;;20.05;8.95;;;21.50;78.20;;;;;;7381768;19;20010;-72
2023/07/14 03:55:39;;;;;;;16.52;8.23;;;21.50;77.60;;;;;;7380962;19;20006;-72
2023/07/14 03:58:08;;;;;;;15.95;8.95;;;21.50;77.60;;;;;;7380627;19;20019;-73
2023/07/14 04:00:37;;;;;;;19.90;9.32;;;21.60;77.70;;;;;;7403326;19;20067;-73
2023/07/14 04:03:07;;;;;;;16.05;8.32;;;21.60;77.60;;;;;;7380504;19;20028;-73
2023/07/14 04:05:37;;;;;;;13.50;8.37;;;21.50;77.50;;;;;;7382224;19;20334;-73
2023/07/14 04:08:08;;;;;;;15.77;8.65;;;21.60;77.70;;;;;;7381072;19;20236;-73
2023/07/14 04:10:37;;;;;;;;;;;21.60;77.60;;;;;;7381374;19;20023;-73
2023/07/14 04:13:05;;;;;;;18.58;9.20;;;21.70;77.70;;;;;;7382058;19;20279;-73
2023/07/14 04:15:34;;;;;;;14.88;9.00;;;21.70;77.50;;;;;;7403212;19;20023;-73
2023/07/14 04:18:03;;;;;;;12.88;8.30;;;21.70;77.50;;;;;;7383847;19;20006;-73
2023/07/14 04:20:31;;;;;;;18.52;8.85;;;21.70;77.60;;;;;;7385858;19;20006;-73
2023/07/14 04:23:00;;;;;;;15.30;7.97;;;21.70;77.70;;;;;;7385914;19;20022;-72
2023/07/14 04:25:32;;;;;;;16.58;9.13;;;21.70;77.90;;;;;;7384067;19;20003;-73
2023/07/14 04:28:00;;;;;;;;;;;21.70;77.90;;;;;;7381341;19;20006;-73
2023/07/14 04:30:29;;;;;;;16.50;9.48;;;21.80;78.10;;;;;;7404104;19;19920;-74
2023/07/14 04:32:57;;;;;;;17.60;9.00;;;21.70;78.00;;;;;;7382437;19;20024;-73
2023/07/14 04:35:26;;;;;;;16.25;8.82;;;21.70;78.00;;;;;;7383856;19;20006;-72
2023/07/14 04:37:55;;;;;;;16.05;8.95;;;21.80;78.30;;;;;;7385800;19;20010;-72
2023/07/14 04:40:26;;;;;;;15.82;8.32;;;21.80;78.20;;;;;;7385151;19;20007;-73
2023/07/14 04:42:57;;;;;;;17.95;9.32;;;21.80;78.00;;;;;;7394382;19;20007;-73
2023/07/14 04:45:26;;;;;;;14.05;9.10;;;21.80;78.00;;;;;;7403528;19;20055;-73
2023/07/14 04:47:56;;;;;;;19.77;10.13;;;21.90;77.90;;;;;;7381288;19;20016;-73
2023/07/14 04:50:25;;;;;;;14.82;9.05;;;21.80;78.00;;;;;;7381910;19;20325;-72
2023/07/14 04:52:54;;;;;;;18.75;9.65;;;21.80;78.20;;;;;;7382569;19;20010;-73
2023/07/14 04:55:22;;;;;;;17.70;10.50;;;21.80;78.50;;;;;;7381175;19;20003;-72
2023/07/14 04:57:51;;;;;;;22.02;10.80;;;21.80;78.50;;;;;;7403180;19;20035;-72
2023/07/14 05:00:23;;;;;;;17.08;9.82;;;21.80;78.80;;;;;;7380015;19;20010;-72
2023/07/14 05:02:52;;;;;;;16.23;9.88;;;21.70;79.00;;;;;;7383534;19;20002;-72
2023/07/14 05:05:23;;;;;;;19.65;9.68;;;21.70;79.10;;;;;;7388225;19;20002;-73
2023/07/14 05:07:52;;;;;;;16.27;10.32;;;21.80;79.20;;;;;;7387716;19;20007;-72
2023/07/14 05:10:22;;;;;;;16.27;9.70;;;21.80;79.10;;;;;;7387310;19;20315;-72
2023/07/14 05:12:53;;;;;;;21.67;10.35;;;21.80;79.00;;;;;;7410711;19;20028;-72
2023/07/14 05:15:25;;;;;;;18.48;9.55;;;21.80;78.90;;;;;;7390941;19;20078;-72
2023/07/14 05:17:54;;;;;;;16.85;10.10;;;21.80;78.90;;;;;;7387532;19;20013;-72
2023/07/14 05:20:23;;;;;;;14.52;9.30;;;21.90;79.00;;;;;;7387964;19;20389;-72
2023/07/14 05:22:54;;;;;;;27.70;9.55;;;21.90;79.10;;;;;;7392586;19;20003;-72
2023/07/14 05:25:25;;;;;;;16.67;9.13;;;22.00;79.00;;;;;;7390808;19;20007;-73
2023/07/14 05:27:54;;;;;;;17.60;8.98;;;22.00;78.70;;;;;;7405543;19;20007;-73
2023/07/14 05:30:26;;;;;;;22.80;8.70;;;22.10;78.70;;;;;;7412134;19;20010;-73
2023/07/14 05:32:54;;;;;;;13.73;8.15;;;22.10;78.70;;;;;;7389584;19;20027;-73
2023/07/14 05:35:25;;;;;;;17.33;7.88;;;22.10;78.60;;;;;;7390966;19;20003;-70
2023/07/14 05:37:56;;;;;;;23.08;9.55;;;22.20;78.50;;;;;;7387470;19;20006;-73
2023/07/14 05:40:25;;;;;;;17.20;9.48;;;22.20;78.80;;;;;;7385874;19;20006;-72
2023/07/14 05:42:54;;;;;;;23.70;9.45;;;22.30;79.10;;;;;;7407033;19;20019;-72
2023/07/14 05:45:25;;;;;;;21.45;9.23;;;22.30;79.10;;;;;;7408917;19;20007;-72
2023/07/14 05:47:54;;;;;;;;;;;22.30;78.80;;;;;;7390493;19;20006;-73
2023/07/14 05:50:22;;;;;;;20.83;9.38;;;22.40;79.00;;;;;;7389943;19;20139;-73
2023/07/14 05:52:51;;;;;;;21.50;9.35;;;22.40;78.90;;;;;;7389001;19;20027;-73
2023/07/14 05:55:20;;;;;;;18.25;10.43;;;22.40;79.00;;;;;;7384293;19;20027;-73
2023/07/14 05:57:49;;;;;;;21.77;9.13;;;22.40;79.30;;;;;;7408231;19;20303;-73
2023/07/14 06:00:19;;;;;;;21.38;9.13;;;22.50;79.40;;;;;;7386295;19;20011;-73
2023/07/14 06:02:50;;;;;;;14.45;8.20;;;22.50;79.30;;;;;;7385702;19;20006;-73
2023/07/14 06:05:20;;;;;;;21.52;8.35;;;22.50;79.20;;;;;;7386406;19;20006;-73
2023/07/14 06:07:49;;;;;;;18.00;8.32;;;22.50;79.30;;;;;;7390038;19;20082;-77
2023/07/14 06:10:17;;;;;;;18.42;8.50;;;22.50;78.90;;;;;;7388266;19;20353;-79
2023/07/14 06:12:46;;;;;;;19.40;8.40;;;22.60;79.20;;;;;;7411004;19;20007;-77
2023/07/14 06:15:15;;;;;;;17.67;7.65;;;22.60;79.60;;;;;;7392628;19;20024;-77
2023/07/14 06:17:44;;;;;;;16.70;7.82;;;22.60;79.30;;;;;;7389507;19;19999;-77
2023/07/14 06:20:15;;;;;;;12.63;7.43;;;22.60;79.40;;;;;;7387122;19;20007;-77
2023/07/14 06:22:44;;;;;;;;;;;22.60;79.30;;;;;;7383896;19;20007;-76
2023/07/14 06:25:13;;;;;;;15.30;7.80;;;22.60;79.40;;;;;;7386078;19;20242;-77
2023/07/14 06:27:44;;;;;;;16.25;7.40;;;22.70;79.70;;;;;;7405238;19;20352;-77
2023/07/14 06:30:15;;;;;;;13.77;7.32;;;22.80;79.50;;;;;;7386896;19;20005;-77
2023/07/14 06:32:44;;;;;;;;;;;22.80;79.60;;;;;;7386616;19;20006;-77
2023/07/14 06:35:16;;;;;;;11.98;6.70;;;22.90;79.80;;;;;;7385896;19;20254;-77
2023/07/14 06:37:47;;;;;;;12.40;6.82;;;22.90;80.30;;;;;;7385595;19;20007;-77
2023/07/14 06:40:16;;;;;;;14.00;6.05;;;22.90;78.80;;;;;;7389237;19;20023;-77
2023/07/14 06:42:45;;;;;;;11.20;5.80;;;23.00;77.70;;;;;;7410355;19;20193;-76
2023/07/14 06:45:13;;;;;;;13.65;5.60;;;23.10;76.50;;;;;;7388002;19;19999;-76
2023/07/14 06:47:42;;;;;;;10.18;5.65;;;23.20;75.60;;;;;;7397424;19;20018;-76
2023/07/14 06:50:11;;;;;;;16.25;6.15;;;23.20;75.00;;;;;;7389888;19;20019;-76
2023/07/14 06:52:43;;;;;;;14.75;6.00;;;23.30;74.40;;;;;;7387156;19;20023;-76
2023/07/14 06:55:11;;;;;;;;;;;23.40;73.60;;;;;;7385638;19;20013;-76
2023/07/14 06:57:40;;;;;;;18.58;5.30;;;23.50;73.40;;;;;;7409496;19;19918;-76
2023/07/14 07:00:12;;;;;;;9.70;4.50;;;23.60;72.80;;;;;;7387188;19;20105;-75
2023/07/14 07:02:41;;;;;;;12.00;4.70;;;23.60;72.40;;;;;;7387442;19;20002;-76
2023/07/14 07:05:11;;;;;;;13.60;5.25;;;23.70;71.80;;;;;;7386876;19;20007;-76
2023/07/14 07:07:39;;;;;;;10.32;5.47;;;23.70;71.70;;;;;;7387184;19;20003;-75
2023/07/14 07:10:12;;;;;;;11.68;4.78;;;23.70;71.50;;;;;;7384820;19;20099;-75
2023/07/14 07:12:41;;;;;;;7.57;4.63;;;23.80;71.30;;;;;;7405739;19;20219;-76
2023/07/14 07:15:10;;;;;;;8.05;4.38;;;23.80;70.80;;;;;;7386596;19;20461;-75
2023/07/14 07:17:39;;;;;;;10.20;5.00;;;23.90;70.40;;;;;;7382950;19;20231;-76
2023/07/14 07:20:10;;;;;;;7.82;4.50;;;23.90;70.70;;;;;;7385140;19;20076;-76
2023/07/14 07:22:39;;;;;;;9.70;4.22;;;24.00;69.60;;;;;;7384327;19;20295;-75
2023/07/14 07:25:11;;;;;;;11.88;4.65;;;24.00;69.30;;;;;;7379792;19;20023;-76
2023/07/14 07:27:40;;;;;;;7.95;4.30;;;24.10;69.00;;;;;;7410073;19;20386;-76
2023/07/14 07:30:10;;;;;;;10.95;4.38;;;24.10;69.00;;;;;;7398167;19;20245;-76
2023/07/14 07:32:40;;;;;;;14.05;4.32;;;24.20;68.60;;;;;;7385098;19;20006;-76
2023/07/14 07:35:12;;;;;;;10.43;4.45;;;24.30;68.30;;;;;;7383937;19;20091;-76
2023/07/14 07:37:41;;;;;;;10.20;3.92;;;24.30;67.80;;;;;;7384277;19;20006;-76
2023/07/14 07:40:14;;;;;;;9.82;3.95;;;24.30;66.90;;;;;;7381031;19;20246;-77
2023/07/14 07:42:43;;;;;;;12.25;4.15;;;24.30;67.00;;;;;;7404279;19;20010;-77
2023/07/14 07:45:13;;;;;;;12.43;4.10;;;24.40;67.00;;;;;;7385533;19;20006;-77
2023/07/14 07:47:45;;;;;;;7.05;3.90;;;24.40;66.90;;;;;;7383920;19;20010;-76
2023/07/14 07:50:14;;;;;;;9.15;4.05;;;24.40;66.80;;;;;;7382177;19;20306;-77
2023/07/14 07:52:45;;;;;;;14.00;4.22;;;24.50;66.60;;;;;;7381600;19;20006;-77
2023/07/14 07:55:16;;;;;;;14.90;4.30;;;24.50;66.20;;;;;;7384252;19;20003;-77
2023/07/14 07:57:47;;;;;;;9.15;3.60;;;24.50;66.30;;;;;;7406440;19;20010;-77
2023/07/14 08:00:17;;;;;;;13.15;3.97;;;24.60;65.70;;;;;;7383645;19;20006;-77
2023/07/14 08:02:46;;;;;;;9.07;3.60;;;24.60;65.70;;;;;;7381836;19;20331;-76
2023/07/14 08:05:16;;;;;;;13.65;4.32;;;24.70;65.70;;;;;;7381449;19;20014;-77
2023/07/14 08:07:45;;;;;;;14.77;4.18;;;24.70;65.80;;;;;;7384051;19;20006;-77
2023/07/14 08:10:17;;;;;;;8.90;3.75;;;24.70;65.70;;;;;;7383539;19;20023;-77
2023/07/14 08:12:45;;;;;;;8.13;3.38;;;24.70;65.80;;;;;;7407565;19;20358;-77
2023/07/14 08:15:14;;;;;;;10.13;3.88;;;24.80;65.50;;;;;;7388469;19;20420;-77
2023/07/14 08:17:58;;;;;;;6.45;3.58;;;24.90;64.80;;;;;;7387346;19;20040;-78
2023/07/14 08:20:34;;;;;;;14.48;4.20;;;25.00;64.20;;;;;;7390439;19;19998;-77
2023/07/14 08:23:06;;;;;;;13.35;4.10;;;25.00;63.20;;;;;;7391108;19;20003;-77
2023/07/14 08:25:37;;;;;;;14.73;4.35;;;25.00;62.90;;;;;;7389300;19;20016;-78
2023/07/14 08:28:06;;;;;;;;;;;25.10;62.80;;;;;;7388902;19;20006;-78
2023/07/14 08:30:35;;;;;;;13.32;4.32;;;25.00;61.90;;;;;;7403897;19;19951;-77
2023/07/14 08:33:04;;;;;;;8.00;3.88;;;25.00;62.40;;;;;;7380472;19;20014;-77
2023/07/14 08:35:33;;;;;;;13.23;3.60;;;25.10;63.00;;;;;;7383216;19;20006;-77
2023/07/14 08:38:02;;;;;;;12.30;3.70;;;25.00;61.30;;;;;;7382954;19;20010;-77
2023/07/14 08:40:45;;;;;;;11.93;3.65;;;25.10;61.90;;;;;;7389352;19;20023;-77
2023/07/14 08:43:27;;;;;;;10.13;3.53;;;25.10;62.30;;;;;;7389136;19;20007;-76
2023/07/14 08:46:03;;;;;;;19.23;3.78;;;25.00;62.30;;;;;;7383872;19;20062;-77
2023/07/14 08:48:37;;;;;;;9.70;3.60;;;25.00;62.20;;;;;;7404799;19;20366;-77
2023/07/14 08:51:18;;;;;;;8.25;3.10;;;25.10;63.00;;;;;;7381618;19;20376;-77
2023/07/14 08:53:52;;;;;;;16.83;3.38;;;25.00;61.90;;;;;;7380980;19;20259;-77
2023/07/14 08:56:25;;;;;;;11.38;3.10;;;25.00;61.10;;;;;;7380928;19;20006;-77
2023/07/14 08:58:55;;;;;;;9.82;3.90;;;25.00;61.50;;;;;;7383154;19;20030;-77
2023/07/14 09:01:38;;;;;;;10.35;4.20;;;25.00;61.10;;;;;;7383838;19;20003;-77
2023/07/14 09:04:14;;;;;;;10.68;3.20;;;25.00;60.20;;;;;;7380187;19;20014;-77
2023/07/14 09:06:43;;;;;;;9.20;3.45;;;24.90;60.30;;;;;;7404051;19;20305;-76
2023/07/14 09:09:18;;;;;;;9.25;3.13;;;24.90;60.40;;;;;;7381862;19;20017;-76
2023/07/14 09:12:03;;;;;;;7.93;3.47;;;24.80;60.00;;;;;;7380853;19;20002;-77
2023/07/14 09:14:56;;;;;;;11.75;3.60;;;24.80;60.90;;;;;;7379747;19;20250;-77
2023/07/14 09:17:45;;;;;;;8.88;3.45;;;24.80;61.10;;;;;;7381614;19;20003;-76
2023/07/14 09:20:57;;;;;;;16.63;3.25;;;24.90;61.10;;;;;;7380418;19;20054;-76
2023/07/14 09:23:46;;;;;;;8.35;3.17;;;24.90;60.00;;;;;;7379757;19;20007;-77
2023/07/14 09:26:19;;;;;;;5.75;3.10;;;24.90;59.60;;;;;;7382063;19;20066;-77
2023/07/14 09:28:52;;;;;;;10.05;3.67;;;24.90;59.40;;;;;;7383095;19;20275;-76
2023/07/14 09:31:37;;;;;;;11.25;3.45;;;24.90;59.00;;;;;;7379925;19;20010;-76
2023/07/14 09:34:15;;;;;;;8.10;2.97;;;24.90;59.00;;;;;;7380381;19;20035;-77
2023/07/14 09:36:45;;;;;;;8.25;2.78;;;24.90;58.90;;;;;;7398783;19;20010;-74
2023/07/14 09:39:22;;;;;;;7.35;3.10;;;24.90;58.80;;;;;;7382047;19;20238;-78
2023/07/14 09:41:52;;;;;;;12.25;3.58;;;24.90;58.50;;;;;;7384212;19;20003;-77
2023/07/14 09:44:26;;;;;;;7.07;3.60;;;24.90;58.10;;;;;;7387585;19;20007;-78
2023/07/14 09:46:58;;;;;;;4.13;2.67;;;25.00;58.20;;;;;;7390533;19;20014;-78
2023/07/14 09:49:35;;;;;;;7.90;3.08;;;25.00;58.40;;;;;;7396397;19;20070;-79
2023/07/14 09:52:23;;;;;;;9.15;2.95;;;25.10;58.10;;;;;;7389595;19;20010;-78
2023/07/14 09:54:54;;;;;;;8.90;3.00;;;25.10;58.20;;;;;;7417358;19;20017;-77
2023/07/14 09:57:27;;;;;;;9.45;3.05;;;25.10;58.30;;;;;;7404030;19;20010;-76
2023/07/14 10:00:10;;;;;;;17.30;3.13;;;25.20;58.50;;;;;;7403107;19;20011;-77
2023/07/14 10:02:39;;;;;;;7.32;2.63;;;25.20;58.40;;;;;;7393519;19;20006;-77
2023/07/14 10:05:34;;;;;;;6.82;2.92;;;25.20;58.40;;;;;;7387767;19;20286;-77
2023/07/14 10:08:07;;;;;;;6.82;2.80;;;25.30;58.40;;;;;;7390927;19;20006;-79
2023/07/14 10:10:42;;;;;;;4.95;2.60;;;25.30;58.20;;;;;;7395404;19;20020;-75
2023/07/14 10:13:26;;;;;;;7.32;2.90;;;25.30;58.60;;;;;;7390542;19;20276;-74
2023/07/14 10:16:03;;;;;;;4.78;2.70;;;25.20;58.00;;;;;;7402692;19;20050;-77
2023/07/14 10:18:32;;;;;;;12.35;2.47;;;25.30;58.30;;;;;;7416701;19;20027;-78
2023/07/14 10:21:13;;;;;;;7.50;2.85;;;25.40;57.70;;;;;;7397754;19;20026;-78
2023/07/14 10:24:05;;;;;;;8.65;2.60;;;25.50;57.80;;;;;;7396008;19;20006;-76
2023/07/14 10:26:37;;;;;;;6.38;2.55;;;25.60;57.20;;;;;;7393777;19;20313;-76
2023/07/14 10:29:07;;;;;;;5.50;2.30;;;25.60;57.40;;;;;;7389426;19;20006;-77
2023/07/14 10:31:43;;;;;;;7.10;2.65;;;25.70;56.80;;;;;;7390265;19;20007;-77
2023/07/14 10:34:30;;;;;;;3.70;2.35;;;25.80;56.80;;;;;;7391374;19;20380;-76
2023/07/14 10:37:09;;;;;;;5.07;2.42;;;25.90;56.30;;;;;;7390637;19;20013;-77
2023/07/14 10:39:45;;;;;;;5.35;2.65;;;26.00;56.00;;;;;;7411077;19;20035;-77
2023/07/14 10:42:23;;;;;;;5.20;2.50;;;26.20;55.60;;;;;;7390031;19;20270;-76
2023/07/14 10:44:56;;;;;;;6.22;2.40;;;26.40;55.50;;;;;;7384443;19;20373;-80
2023/07/14 10:47:43;;;;;;;7.88;2.75;;;26.40;55.20;;;;;;7390106;19;20062;-77
2023/07/14 10:50:21;;;;;;;7.28;2.42;;;26.40;54.90;;;;;;7406371;19;20101;-79
2023/07/14 10:52:54;;;;;;;12.07;2.67;;;26.40;55.00;;;;;;7409514;19;20007;-78
2023/07/14 10:55:27;;;;;;;4.60;2.47;;;26.50;55.20;;;;;;7386859;19;20014;-77
2023/07/14 10:58:19;;;;;;;4.07;2.30;;;26.70;55.80;;;;;;7385759;19;20048;-77
2023/07/14 11:01:23;;;;;;;6.35;2.67;;;26.90;55.40;;;;;;7390564;19;20257;-80
2023/07/14 11:04:02;;;;;;;5.68;2.25;;;27.10;55.40;;;;;;7386876;19;20003;-79
2023/07/14 11:10:07;;;;;;;3.40;2.10;;;27.30;54.70;;;;;;7389059;19;20011;-80
2023/07/14 11:13:16;;;;;;;4.00;2.30;;;27.40;54.20;;;;;;7390447;19;20027;-80
2023/07/14 11:19:43;;;;;;;5.35;2.25;;;27.30;53.60;;;;;;7389433;19;20041;-80
2023/07/14 11:25:29;;;;;;;4.82;2.22;;;27.60;53.40;;;;;;7386264;19;20018;-76
2023/07/14 11:28:06;;;;;;;5.38;2.00;;;27.70;53.20;;;;;;7383100;19;20006;-78
2023/07/14 11:30:46;;;;;;;6.60;2.25;;;27.70;53.50;;;;;;7388240;19;20071;-79
2023/07/14 11:33:23;;;;;;;5.03;2.13;;;27.70;53.30;;;;;;7388039;19;20010;-77
2023/07/14 11:36:02;;;;;;;5.63;2.20;;;27.90;52.90;;;;;;7386400;19;20040;-77
2023/07/14 11:38:40;;;;;;;9.73;2.83;;;27.80;52.80;;;;;;7384057;19;20025;-77
2023/07/14 11:41:30;;;;;;;4.80;2.05;;;27.80;53.00;;;;;;7384265;19;20007;-77
2023/07/14 11:44:05;;;;;;;4.72;2.72;;;27.90;53.10;;;;;;7381209;19;20010;-77
2023/07/14 11:46:37;;;;;;;20.42;2.30;;;27.90;53.60;;;;;;7404275;19;20006;-80
2023/07/14 11:49:08;;;;;;;4.63;2.08;;;27.80;52.90;;;;;;7387619;19;20010;-78
2023/07/14 11:51:55;;;;;;;9.50;2.40;;;27.90;53.10;;;;;;7382247;19;20066;-78
2023/07/14 11:54:43;;;;;;;15.02;2.50;;;28.00;53.20;;;;;;7384218;19;20013;-79
2023/07/14 11:57:18;;;;;;;4.57;2.17;;;28.10;53.10;;;;;;7387813;19;20010;-77
2023/07/14 12:00:03;;;;;;;7.30;2.20;;;28.20;53.20;;;;;;7387652;19;20006;-77
2023/07/14 12:02:45;;;;;;;4.13;1.75;;;28.20;52.70;;;;;;7384245;19;20002;-77
2023/07/14 12:05:35;;;;;;;3.95;1.90;;;28.10;52.50;;;;;;7384278;19;20231;-78
2023/07/14 12:08:52;;;;;;;4.63;1.67;;;28.20;52.70;;;;;;7383684;19;20005;-79
2023/07/14 12:11:47;;;;;;;3.67;2.20;;;28.20;53.10;;;;;;7385608;19;20245;-78
2023/07/14 12:15:14;;;;;;;7.70;1.75;;;28.40;53.90;;;;;;7382539;19;20071;-80
2023/07/14 12:17:55;;;;;;;2.97;1.65;;;28.50;51.90;;;;;;7387664;19;20006;-78
2023/07/14 12:20:32;;;;;;;;;;;28.40;51.70;;;;;;7383928;19;20074;-78
2023/07/14 12:23:26;;;;;;;3.65;2.42;;;28.40;51.60;;;;;;7384005;19;19919;-80
2023/07/14 12:26:03;;;;;;;6.38;2.15;;;28.50;51.40;;;;;;7388297;19;20006;-79
2023/07/14 12:28:40;;;;;;;5.18;2.30;;;28.70;51.50;;;;;;7407654;19;20035;-78
2023/07/14 12:31:14;;;;;;;5.15;1.77;;;28.80;51.30;;;;;;7397850;19;20007;-76
2023/07/14 12:33:43;;;;;;;3.88;1.98;;;28.80;51.20;;;;;;7379719;19;20062;-77
2023/07/14 12:36:18;;;;;;;4.05;2.00;;;28.90;51.60;;;;;;7378884;19;20006;-76
2023/07/14 12:39:28;;;;;;;4.78;2.13;;;29.00;51.70;;;;;;7386668;19;20011;-82
2023/07/14 12:41:57;;;;;;;7.32;2.15;;;29.20;51.10;;;;;;7381222;19;20015;-74
2023/07/14 12:44:35;;;;;;;7.57;2.22;;;29.30;51.00;;;;;;7377772;19;20085;-75
2023/07/14 12:47:05;;;;;;;7.93;2.28;;;29.40;51.30;;;;;;7383872;19;20063;-74
2023/07/14 12:49:38;;;;;;;5.97;2.30;;;29.40;51.30;;;;;;7404196;19;20010;-77
2023/07/14 12:52:09;;;;;;;7.95;2.70;;;29.40;51.20;;;;;;7381582;19;20030;-73
2023/07/14 12:54:38;;;;;;;11.02;2.95;;;29.40;51.70;;;;;;7380908;19;20007;-74
2023/07/14 12:57:07;;;;;;;3.47;2.25;;;29.40;51.50;;;;;;7382224;19;20003;-74
2023/07/14 12:59:39;;;;;;;7.20;2.10;;;29.50;51.00;;;;;;7384590;19;20270;-76
2023/07/14 13:02:13;;;;;;;4.55;2.22;;;29.50;50.20;;;;;;7389531;19;20014;-75
2023/07/14 13:04:42;;;;;;;11.25;1.92;;;29.40;49.80;;;;;;7404228;19;20003;-74
2023/07/14 13:07:17;;;;;;;5.60;2.28;;;29.40;49.60;;;;;;7385088;19;20047;-76
2023/07/14 13:09:46;;;;;;;3.38;2.10;;;29.60;50.30;;;;;;7379025;19;20019;-75
2023/07/14 13:12:19;;;;;;;4.03;2.05;;;29.60;49.90;;;;;;7383280;19;20006;-76
2023/07/14 13:17:28;;;;;;;6.18;2.42;;;29.80;49.80;;;;;;7305675;19;20010;-75
2023/07/14 13:19:57;;;;;;;6.78;1.92;;;29.90;50.30;;;;;;7379822;19;20022;-76
2023/07/14 13:22:31;;;;;;;6.68;2.25;;;30.00;50.30;;;;;;7401413;19;20003;-77
2023/07/14 13:25:06;;;;;;;3.33;1.60;;;30.10;50.10;;;;;;7386783;19;20006;-77
2023/07/14 13:27:38;;;;;;;7.78;1.77;;;30.10;49.50;;;;;;7396426;19;20040;-76
2023/07/14 13:30:21;;;;;;;4.00;1.50;;;30.10;49.00;;;;;;7392308;19;20359;-75
2023/07/14 13:32:56;;;;;;;6.63;1.75;;;30.00;48.40;;;;;;7388016;19;20382;-75
2023/07/14 13:35:30;;;;;;;8.70;1.65;;;30.00;48.90;;;;;;7388303;19;20007;-77
2023/07/14 13:38:01;;;;;;;4.90;1.83;;;30.10;49.20;;;;;;7388859;19;20013;-77
2023/07/14 13:40:42;;;;;;;4.63;1.40;;;30.20;48.70;;;;;;7409514;19;20006;-74
2023/07/14 13:43:20;;;;;;;7.90;1.90;;;30.10;47.70;;;;;;7389080;19;20007;-78
2023/07/14 13:45:59;;;;;;;7.07;2.03;;;30.10;47.70;;;;;;7384929;19;20007;-74